sensor_id;sensor_type;location;lat;lon;timestamp;P1;durP1;ratioP1;P2;durP2;ratioP2
39188;SDS011;24915;50.858;4.376;2023-02-28T00:00:34;16.17;;;7.15;;
39188;SDS011;24915;50.858;4.376;2023-02-28T00:03:00;14.18;;;6.70;;
39188;SDS011;24915;50.858;4.376;2023-02-28T00:05:27;9.15;;;6.68;;
39188;SDS011;24915;50.858;4.376;2023-02-28T00:07:53;20.10;;;7.13;;
39188;SDS011;24915;50.858;4.376;2023-02-28T00:10:24;16.27;;;7.65;;
39188;SDS011;24915;50.858;4.376;2023-02-28T00:12:52;12.18;;;7.47;;
39188;SDS011;24915;50.858;4.376;2023-02-28T00:15:21;12.02;;;7.28;;
39188;SDS011;24915;50.858;4.376;2023-02-28T00:17:48;13.38;;;7.63;;
39188;SDS011;24915;50.858;4.376;2023-02-28T00:20:14;14.63;;;6.93;;
39188;SDS011;24915;50.858;4.376;2023-02-28T00:22:41;14.02;;;7.30;;
39188;SDS011;24915;50.858;4.376;2023-02-28T00:25:09;10.35;;;7.15;;
39188;SDS011;24915;50.858;4.376;2023-02-28T00:27:37;10.38;;;7.03;;
39188;SDS011;24915;50.858;4.376;2023-02-28T00:30:04;11.50;;;6.85;;
39188;SDS011;24915;50.858;4.376;2023-02-28T00:32:31;12.63;;;6.60;;
39188;SDS011;24915;50.858;4.376;2023-02-28T00:34:57;14.20;;;7.03;;
39188;SDS011;24915;50.858;4.376;2023-02-28T00:37:22;18.48;;;6.72;;
39188;SDS011;24915;50.858;4.376;2023-02-28T00:39:48;13.02;;;7.22;;
39188;SDS011;24915;50.858;4.376;2023-02-28T00:42:14;11.68;;;6.80;;
39188;SDS011;24915;50.858;4.376;2023-02-28T00:44:39;10.60;;;7.50;;
39188;SDS011;24915;50.858;4.376;2023-02-28T00:47:05;10.40;;;7.20;;
39188;SDS011;24915;50.858;4.376;2023-02-28T00:49:30;16.58;;;6.97;;
39188;SDS011;24915;50.858;4.376;2023-02-28T00:51:57;13.43;;;6.75;;
39188;SDS011;24915;50.858;4.376;2023-02-28T00:54:23;10.40;;;6.97;;
39188;SDS011;24915;50.858;4.376;2023-02-28T00:56:49;13.23;;;7.47;;
39188;SDS011;24915;50.858;4.376;2023-02-28T00:59:16;11.63;;;7.20;;
39188;SDS011;24915;50.858;4.376;2023-02-28T01:01:43;12.95;;;7.30;;
39188;SDS011;24915;50.858;4.376;2023-02-28T01:04:10;9.98;;;6.80;;
39188;SDS011;24915;50.858;4.376;2023-02-28T01:06:36;10.63;;;7.40;;
39188;SDS011;24915;50.858;4.376;2023-02-28T01:09:02;14.10;;;7.25;;
39188;SDS011;24915;50.858;4.376;2023-02-28T01:11:29;14.35;;;7.20;;
39188;SDS011;24915;50.858;4.376;2023-02-28T01:13:56;13.60;;;6.85;;
39188;SDS011;24915;50.858;4.376;2023-02-28T01:16:22;11.80;;;6.97;;
39188;SDS011;24915;50.858;4.376;2023-02-28T01:18:47;10.25;;;7.72;;
39188;SDS011;24915;50.858;4.376;2023-02-28T01:21:17;11.70;;;7.25;;
39188;SDS011;24915;50.858;4.376;2023-02-28T01:23:44;14.05;;;7.43;;
39188;SDS011;24915;50.858;4.376;2023-02-28T01:26:14;13.43;;;7.50;;
39188;SDS011;24915;50.858;4.376;2023-02-28T01:28:42;11.82;;;7.50;;
39188;SDS011;24915;50.858;4.376;2023-02-28T01:31:08;13.98;;;7.93;;
39188;SDS011;24915;50.858;4.376;2023-02-28T01:33:34;13.70;;;7.25;;
39188;SDS011;24915;50.858;4.376;2023-02-28T01:36:33;12.52;;;7.40;;
39188;SDS011;24915;50.858;4.376;2023-02-28T01:38:52;15.60;;;8.05;;
39188;SDS011;24915;50.858;4.376;2023-02-28T01:41:19;13.85;;;7.07;;
39188;SDS011;24915;50.858;4.376;2023-02-28T01:46:13;13.63;;;7.75;;
39188;SDS011;24915;50.858;4.376;2023-02-28T01:48:40;13.38;;;7.95;;
39188;SDS011;24915;50.858;4.376;2023-02-28T01:51:14;15.27;;;7.93;;
39188;SDS011;24915;50.858;4.376;2023-02-28T01:53:53;15.52;;;8.18;;
39188;SDS011;24915;50.858;4.376;2023-02-28T01:56:24;16.63;;;8.90;;
39188;SDS011;24915;50.858;4.376;2023-02-28T01:58:54;11.75;;;7.68;;
39188;SDS011;24915;50.858;4.376;2023-02-28T02:01:21;14.70;;;8.18;;
39188;SDS011;24915;50.858;4.376;2023-02-28T02:03:49;11.70;;;8.07;;
39188;SDS011;24915;50.858;4.376;2023-02-28T02:06:20;14.27;;;8.05;;
39188;SDS011;24915;50.858;4.376;2023-02-28T02:08:47;15.80;;;8.43;;
39188;SDS011;24915;50.858;4.376;2023-02-28T02:11:13;13.57;;;8.80;;
39188;SDS011;24915;50.858;4.376;2023-02-28T02:17:20;13.10;;;8.13;;
39188;SDS011;24915;50.858;4.376;2023-02-28T02:25:50;13.52;;;8.40;;
39188;SDS011;24915;50.858;4.376;2023-02-28T02:42:45;15.98;;;9.25;;
39188;SDS011;24915;50.858;4.376;2023-02-28T02:47:49;11.55;;;9.25;;
39188;SDS011;24915;50.858;4.376;2023-02-28T02:50:18;14.68;;;9.30;;
39188;SDS011;24915;50.858;4.376;2023-02-28T02:52:53;12.20;;;9.23;;
39188;SDS011;24915;50.858;4.376;2023-02-28T02:55:21;15.00;;;9.35;;
39188;SDS011;24915;50.858;4.376;2023-02-28T02:57:52;15.93;;;9.70;;
39188;SDS011;24915;50.858;4.376;2023-02-28T03:00:27;13.75;;;9.57;;
39188;SDS011;24915;50.858;4.376;2023-02-28T03:02:57;14.35;;;9.60;;
39188;SDS011;24915;50.858;4.376;2023-02-28T03:05:25;14.90;;;9.35;;
39188;SDS011;24915;50.858;4.376;2023-02-28T03:07:55;17.75;;;9.95;;
39188;SDS011;24915;50.858;4.376;2023-02-28T03:10:31;18.10;;;9.27;;
39188;SDS011;24915;50.858;4.376;2023-02-28T03:18:24;12.70;;;9.52;;
39188;SDS011;24915;50.858;4.376;2023-02-28T03:23:56;17.63;;;10.73;;
39188;SDS011;24915;50.858;4.376;2023-02-28T03:26:26;15.23;;;9.60;;
39188;SDS011;24915;50.858;4.376;2023-02-28T03:29:02;17.25;;;9.88;;
39188;SDS011;24915;50.858;4.376;2023-02-28T03:31:51;16.17;;;10.77;;
39188;SDS011;24915;50.858;4.376;2023-02-28T03:34:29;16.13;;;10.23;;
39188;SDS011;24915;50.858;4.376;2023-02-28T03:37:09;18.45;;;10.05;;
39188;SDS011;24915;50.858;4.376;2023-02-28T03:39:49;20.02;;;9.98;;
39188;SDS011;24915;50.858;4.376;2023-02-28T03:42:25;16.17;;;10.30;;
39188;SDS011;24915;50.858;4.376;2023-02-28T03:45:08;15.35;;;10.60;;
39188;SDS011;24915;50.858;4.376;2023-02-28T03:47:49;17.90;;;10.93;;
39188;SDS011;24915;50.858;4.376;2023-02-28T03:52:57;16.35;;;11.13;;
39188;SDS011;24915;50.858;4.376;2023-02-28T03:55:44;17.73;;;10.60;;
39188;SDS011;24915;50.858;4.376;2023-02-28T03:58:47;17.17;;;10.82;;
39188;SDS011;24915;50.858;4.376;2023-02-28T04:04:03;27.83;;;11.68;;
39188;SDS011;24915;50.858;4.376;2023-02-28T04:06:30;22.58;;;10.82;;
39188;SDS011;24915;50.858;4.376;2023-02-28T04:08:57;21.27;;;11.18;;
39188;SDS011;24915;50.858;4.376;2023-02-28T04:14:00;20.23;;;11.23;;
39188;SDS011;24915;50.858;4.376;2023-02-28T04:16:27;19.45;;;11.27;;
39188;SDS011;24915;50.858;4.376;2023-02-28T04:18:53;17.05;;;10.90;;
39188;SDS011;24915;50.858;4.376;2023-02-28T04:21:18;22.27;;;11.45;;
39188;SDS011;24915;50.858;4.376;2023-02-28T04:23:47;17.27;;;11.23;;
39188;SDS011;24915;50.858;4.376;2023-02-28T04:26:13;17.80;;;11.35;;
39188;SDS011;24915;50.858;4.376;2023-02-28T04:28:38;20.80;;;11.40;;
39188;SDS011;24915;50.858;4.376;2023-02-28T04:31:04;15.50;;;10.45;;
39188;SDS011;24915;50.858;4.376;2023-02-28T04:33:31;19.33;;;11.75;;
39188;SDS011;24915;50.858;4.376;2023-02-28T04:36:04;19.48;;;12.27;;
39188;SDS011;24915;50.858;4.376;2023-02-28T04:38:33;20.50;;;12.57;;
39188;SDS011;24915;50.858;4.376;2023-02-28T04:41:01;22.33;;;12.13;;
39188;SDS011;24915;50.858;4.376;2023-02-28T04:43:27;15.98;;;11.10;;
39188;SDS011;24915;50.858;4.376;2023-02-28T04:45:54;20.88;;;12.00;;
39188;SDS011;24915;50.858;4.376;2023-02-28T04:48:22;23.17;;;12.57;;
39188;SDS011;24915;50.858;4.376;2023-02-28T04:50:49;18.25;;;11.48;;
39188;SDS011;24915;50.858;4.376;2023-02-28T04:53:15;16.50;;;12.02;;
39188;SDS011;24915;50.858;4.376;2023-02-28T04:55:42;19.27;;;11.60;;
39188;SDS011;24915;50.858;4.376;2023-02-28T04:58:07;21.67;;;11.38;;
39188;SDS011;24915;50.858;4.376;2023-02-28T05:00:33;18.75;;;11.40;;
39188;SDS011;24915;50.858;4.376;2023-02-28T05:02:59;22.55;;;11.63;;
39188;SDS011;24915;50.858;4.376;2023-02-28T05:05:24;17.83;;;11.88;;
39188;SDS011;24915;50.858;4.376;2023-02-28T05:07:50;16.17;;;11.98;;
39188;SDS011;24915;50.858;4.376;2023-02-28T05:10:15;24.30;;;11.93;;
39188;SDS011;24915;50.858;4.376;2023-02-28T05:12:41;19.35;;;11.93;;
39188;SDS011;24915;50.858;4.376;2023-02-28T05:15:08;20.50;;;12.25;;
39188;SDS011;24915;50.858;4.376;2023-02-28T05:17:37;18.45;;;12.48;;
39188;SDS011;24915;50.858;4.376;2023-02-28T05:20:03;23.60;;;12.10;;
39188;SDS011;24915;50.858;4.376;2023-02-28T05:22:30;18.20;;;11.50;;
39188;SDS011;24915;50.858;4.376;2023-02-28T05:24:55;19.50;;;12.00;;
39188;SDS011;24915;50.858;4.376;2023-02-28T05:27:21;19.20;;;11.68;;
39188;SDS011;24915;50.858;4.376;2023-02-28T05:29:47;18.58;;;12.05;;
39188;SDS011;24915;50.858;4.376;2023-02-28T05:32:13;20.50;;;11.90;;
39188;SDS011;24915;50.858;4.376;2023-02-28T05:34:39;19.60;;;12.25;;
39188;SDS011;24915;50.858;4.376;2023-02-28T05:37:06;19.05;;;12.13;;
39188;SDS011;24915;50.858;4.376;2023-02-28T05:39:35;22.27;;;12.98;;
39188;SDS011;24915;50.858;4.376;2023-02-28T05:42:01;18.40;;;11.68;;
39188;SDS011;24915;50.858;4.376;2023-02-28T05:44:27;18.80;;;12.32;;
39188;SDS011;24915;50.858;4.376;2023-02-28T05:46:53;22.15;;;11.73;;
39188;SDS011;24915;50.858;4.376;2023-02-28T05:49:18;27.33;;;12.70;;
39188;SDS011;24915;50.858;4.376;2023-02-28T05:51:44;16.23;;;11.50;;
39188;SDS011;24915;50.858;4.376;2023-02-28T05:54:09;20.73;;;11.95;;
39188;SDS011;24915;50.858;4.376;2023-02-28T05:56:35;25.88;;;12.27;;
39188;SDS011;24915;50.858;4.376;2023-02-28T05:59:03;20.52;;;11.70;;
39188;SDS011;24915;50.858;4.376;2023-02-28T06:01:39;21.40;;;11.63;;
39188;SDS011;24915;50.858;4.376;2023-02-28T06:04:13;21.98;;;11.32;;
39188;SDS011;24915;50.858;4.376;2023-02-28T06:06:43;17.13;;;11.38;;
39188;SDS011;24915;50.858;4.376;2023-02-28T06:09:13;22.02;;;11.98;;
39188;SDS011;24915;50.858;4.376;2023-02-28T06:11:39;18.75;;;12.05;;
39188;SDS011;24915;50.858;4.376;2023-02-28T06:14:04;21.92;;;11.35;;
39188;SDS011;24915;50.858;4.376;2023-02-28T06:16:32;20.92;;;11.68;;
39188;SDS011;24915;50.858;4.376;2023-02-28T06:19:00;20.92;;;11.55;;
39188;SDS011;24915;50.858;4.376;2023-02-28T06:21:28;21.55;;;11.73;;
39188;SDS011;24915;50.858;4.376;2023-02-28T06:23:54;18.58;;;11.45;;
39188;SDS011;24915;50.858;4.376;2023-02-28T06:26:21;22.25;;;12.13;;
39188;SDS011;24915;50.858;4.376;2023-02-28T06:28:47;22.27;;;11.23;;
39188;SDS011;24915;50.858;4.376;2023-02-28T06:31:14;19.55;;;10.98;;
39188;SDS011;24915;50.858;4.376;2023-02-28T06:33:42;16.55;;;11.55;;
39188;SDS011;24915;50.858;4.376;2023-02-28T06:36:10;24.67;;;12.50;;
39188;SDS011;24915;50.858;4.376;2023-02-28T06:38:37;22.23;;;11.68;;
39188;SDS011;24915;50.858;4.376;2023-02-28T06:41:04;20.98;;;10.90;;
39188;SDS011;24915;50.858;4.376;2023-02-28T06:43:32;18.75;;;11.43;;
39188;SDS011;24915;50.858;4.376;2023-02-28T06:45:59;17.63;;;10.98;;
39188;SDS011;24915;50.858;4.376;2023-02-28T06:48:27;24.10;;;11.38;;
39188;SDS011;24915;50.858;4.376;2023-02-28T06:51:14;17.02;;;10.45;;
39188;SDS011;24915;50.858;4.376;2023-02-28T06:53:41;24.10;;;10.82;;
39188;SDS011;24915;50.858;4.376;2023-02-28T06:56:11;25.13;;;11.73;;
39188;SDS011;24915;50.858;4.376;2023-02-28T06:58:38;18.38;;;11.30;;
39188;SDS011;24915;50.858;4.376;2023-02-28T07:01:04;16.17;;;10.85;;
39188;SDS011;24915;50.858;4.376;2023-02-28T07:03:31;21.25;;;11.18;;
39188;SDS011;24915;50.858;4.376;2023-02-28T07:05:57;20.70;;;11.48;;
39188;SDS011;24915;50.858;4.376;2023-02-28T07:08:23;17.20;;;10.23;;
39188;SDS011;24915;50.858;4.376;2023-02-28T07:10:55;21.23;;;10.85;;
39188;SDS011;24915;50.858;4.376;2023-02-28T07:13:22;20.95;;;10.32;;
39188;SDS011;24915;50.858;4.376;2023-02-28T07:15:55;19.40;;;10.32;;
39188;SDS011;24915;50.858;4.376;2023-02-28T07:18:26;17.38;;;9.73;;
39188;SDS011;24915;50.858;4.376;2023-02-28T07:20:52;23.15;;;10.00;;
39188;SDS011;24915;50.858;4.376;2023-02-28T07:23:18;14.27;;;9.18;;
39188;SDS011;24915;50.858;4.376;2023-02-28T07:25:44;15.35;;;9.27;;
39188;SDS011;24915;50.858;4.376;2023-02-28T07:28:10;15.75;;;9.45;;
39188;SDS011;24915;50.858;4.376;2023-02-28T07:30:36;24.13;;;10.43;;
39188;SDS011;24915;50.858;4.376;2023-02-28T07:33:02;19.58;;;9.45;;
39188;SDS011;24915;50.858;4.376;2023-02-28T07:35:28;18.52;;;10.43;;
39188;SDS011;24915;50.858;4.376;2023-02-28T07:37:57;18.60;;;10.10;;
39188;SDS011;24915;50.858;4.376;2023-02-28T07:40:23;20.33;;;9.20;;
39188;SDS011;24915;50.858;4.376;2023-02-28T07:42:49;20.80;;;9.40;;
39188;SDS011;24915;50.858;4.376;2023-02-28T07:45:15;20.55;;;8.85;;
39188;SDS011;24915;50.858;4.376;2023-02-28T07:47:41;17.08;;;8.88;;
39188;SDS011;24915;50.858;4.376;2023-02-28T07:50:08;15.68;;;8.93;;
39188;SDS011;24915;50.858;4.376;2023-02-28T07:52:36;16.30;;;8.60;;
39188;SDS011;24915;50.858;4.376;2023-02-28T07:55:02;13.25;;;7.82;;
39188;SDS011;24915;50.858;4.376;2023-02-28T07:57:29;12.43;;;7.57;;
39188;SDS011;24915;50.858;4.376;2023-02-28T07:59:55;15.32;;;8.70;;
39188;SDS011;24915;50.858;4.376;2023-02-28T08:02:21;16.52;;;8.55;;
39188;SDS011;24915;50.858;4.376;2023-02-28T08:04:46;12.82;;;7.13;;
39188;SDS011;24915;50.858;4.376;2023-02-28T08:07:13;12.75;;;7.38;;
39188;SDS011;24915;50.858;4.376;2023-02-28T08:09:39;10.73;;;7.07;;
39188;SDS011;24915;50.858;4.376;2023-02-28T08:12:06;12.35;;;6.35;;
39188;SDS011;24915;50.858;4.376;2023-02-28T08:14:32;11.57;;;6.50;;
39188;SDS011;24915;50.858;4.376;2023-02-28T08:16:58;9.45;;;6.43;;
39188;SDS011;24915;50.858;4.376;2023-02-28T08:19:23;18.40;;;6.10;;
39188;SDS011;24915;50.858;4.376;2023-02-28T08:21:49;9.00;;;5.43;;
39188;SDS011;24915;50.858;4.376;2023-02-28T08:24:15;10.40;;;5.57;;
39188;SDS011;24915;50.858;4.376;2023-02-28T08:26:40;8.65;;;5.25;;
39188;SDS011;24915;50.858;4.376;2023-02-28T08:29:06;9.75;;;5.82;;
39188;SDS011;24915;50.858;4.376;2023-02-28T08:31:32;7.07;;;5.43;;
39188;SDS011;24915;50.858;4.376;2023-02-28T08:33:58;16.75;;;6.18;;
39188;SDS011;24915;50.858;4.376;2023-02-28T08:36:25;8.88;;;5.57;;
39188;SDS011;24915;50.858;4.376;2023-02-28T08:38:53;9.68;;;6.20;;
39188;SDS011;24915;50.858;4.376;2023-02-28T08:41:19;9.75;;;6.05;;
39188;SDS011;24915;50.858;4.376;2023-02-28T08:43:44;12.32;;;5.72;;
39188;SDS011;24915;50.858;4.376;2023-02-28T08:46:11;6.60;;;4.65;;
39188;SDS011;24915;50.858;4.376;2023-02-28T08:48:38;8.80;;;5.22;;
39188;SDS011;24915;50.858;4.376;2023-02-28T08:51:08;9.75;;;4.53;;
39188;SDS011;24915;50.858;4.376;2023-02-28T08:53:44;7.18;;;4.68;;
39188;SDS011;24915;50.858;4.376;2023-02-28T08:56:11;11.73;;;4.40;;
39188;SDS011;24915;50.858;4.376;2023-02-28T08:58:38;6.22;;;4.60;;
39188;SDS011;24915;50.858;4.376;2023-02-28T09:01:07;8.70;;;4.63;;
39188;SDS011;24915;50.858;4.376;2023-02-28T09:03:41;9.48;;;4.07;;
39188;SDS011;24915;50.858;4.376;2023-02-28T09:06:07;6.88;;;4.55;;
39188;SDS011;24915;50.858;4.376;2023-02-28T09:08:34;4.43;;;3.95;;
39188;SDS011;24915;50.858;4.376;2023-02-28T09:11:00;9.18;;;4.72;;
39188;SDS011;24915;50.858;4.376;2023-02-28T09:13:26;12.52;;;4.53;;
39188;SDS011;24915;50.858;4.376;2023-02-28T09:15:53;7.28;;;4.05;;
39188;SDS011;24915;50.858;4.376;2023-02-28T09:18:19;8.30;;;4.07;;
39188;SDS011;24915;50.858;4.376;2023-02-28T09:20:45;6.13;;;3.97;;
39188;SDS011;24915;50.858;4.376;2023-02-28T09:23:11;5.95;;;4.20;;
39188;SDS011;24915;50.858;4.376;2023-02-28T09:25:38;9.68;;;4.53;;
39188;SDS011;24915;50.858;4.376;2023-02-28T09:28:14;15.93;;;4.13;;
39188;SDS011;24915;50.858;4.376;2023-02-28T09:30:41;8.07;;;3.92;;
39188;SDS011;24915;50.858;4.376;2023-02-28T09:33:06;6.65;;;4.03;;
39188;SDS011;24915;50.858;4.376;2023-02-28T09:35:32;5.82;;;3.83;;
39188;SDS011;24915;50.858;4.376;2023-02-28T09:37:58;10.63;;;4.38;;
39188;SDS011;24915;50.858;4.376;2023-02-28T09:40:24;4.57;;;3.70;;
39188;SDS011;24915;50.858;4.376;2023-02-28T09:42:51;9.70;;;3.90;;
39188;SDS011;24915;50.858;4.376;2023-02-28T09:45:24;4.20;;;3.22;;
39188;SDS011;24915;50.858;4.376;2023-02-28T09:48:01;3.88;;;3.13;;
39188;SDS011;24915;50.858;4.376;2023-02-28T09:50:38;4.68;;;4.10;;
39188;SDS011;24915;50.858;4.376;2023-02-28T09:53:29;6.53;;;3.85;;
39188;SDS011;24915;50.858;4.376;2023-02-28T09:56:01;5.18;;;3.33;;
39188;SDS011;24915;50.858;4.376;2023-02-28T09:58:41;7.00;;;3.30;;
39188;SDS011;24915;50.858;4.376;2023-02-28T10:06:29;3.58;;;2.95;;
39188;SDS011;24915;50.858;4.376;2023-02-28T10:09:09;5.97;;;2.78;;
39188;SDS011;24915;50.858;4.376;2023-02-28T10:11:38;4.20;;;3.00;;
39188;SDS011;24915;50.858;4.376;2023-02-28T10:16:53;8.30;;;3.72;;
39188;SDS011;24915;50.858;4.376;2023-02-28T10:19:27;7.03;;;3.75;;
39188;SDS011;24915;50.858;4.376;2023-02-28T10:22:00;9.00;;;3.22;;
39188;SDS011;24915;50.858;4.376;2023-02-28T10:24:50;5.97;;;3.20;;
39188;SDS011;24915;50.858;4.376;2023-02-28T10:27:24;6.80;;;3.38;;
39188;SDS011;24915;50.858;4.376;2023-02-28T10:29:57;3.45;;;2.90;;
39188;SDS011;24915;50.858;4.376;2023-02-28T10:32:26;5.45;;;3.05;;
39188;SDS011;24915;50.858;4.376;2023-02-28T10:37:31;3.97;;;2.92;;
39188;SDS011;24915;50.858;4.376;2023-02-28T10:40:03;7.00;;;4.18;;
39188;SDS011;24915;50.858;4.376;2023-02-28T10:42:30;4.88;;;3.30;;
39188;SDS011;24915;50.858;4.376;2023-02-28T10:45:15;2.50;;;2.30;;
39188;SDS011;24915;50.858;4.376;2023-02-28T10:47:55;3.10;;;2.30;;
39188;SDS011;24915;50.858;4.376;2023-02-28T10:50:33;3.42;;;2.60;;
39188;SDS011;24915;50.858;4.376;2023-02-28T10:53:05;3.20;;;2.35;;
39188;SDS011;24915;50.858;4.376;2023-02-28T10:56:12;4.25;;;2.70;;
39188;SDS011;24915;50.858;4.376;2023-02-28T10:58:47;4.32;;;2.58;;
39188;SDS011;24915;50.858;4.376;2023-02-28T11:03:55;2.60;;;2.40;;
39188;SDS011;24915;50.858;4.376;2023-02-28T11:06:23;5.10;;;2.70;;
39188;SDS011;24915;50.858;4.376;2023-02-28T11:09:03;6.68;;;3.22;;
39188;SDS011;24915;50.858;4.376;2023-02-28T11:11:42;2.72;;;2.50;;
39188;SDS011;24915;50.858;4.376;2023-02-28T11:14:20;3.53;;;2.55;;
39188;SDS011;24915;50.858;4.376;2023-02-28T11:16:51;3.92;;;2.28;;
39188;SDS011;24915;50.858;4.376;2023-02-28T11:19:20;4.35;;;2.50;;
39188;SDS011;24915;50.858;4.376;2023-02-28T11:22:02;2.70;;;2.50;;
39188;SDS011;24915;50.858;4.376;2023-02-28T11:26:55;3.03;;;2.47;;
39188;SDS011;24915;50.858;4.376;2023-02-28T11:29:23;5.10;;;2.95;;
39188;SDS011;24915;50.858;4.376;2023-02-28T11:34:35;6.63;;;2.67;;
39188;SDS011;24915;50.858;4.376;2023-02-28T11:37:02;3.47;;;2.97;;
39188;SDS011;24915;50.858;4.376;2023-02-28T11:39:33;4.15;;;2.80;;
39188;SDS011;24915;50.858;4.376;2023-02-28T11:42:04;3.50;;;3.20;;
39188;SDS011;24915;50.858;4.376;2023-02-28T11:45:20;4.32;;;2.75;;
39188;SDS011;24915;50.858;4.376;2023-02-28T11:55:16;4.70;;;2.42;;
39188;SDS011;24915;50.858;4.376;2023-02-28T12:05:58;3.75;;;3.20;;
39188;SDS011;24915;50.858;4.376;2023-02-28T12:17:25;3.58;;;3.00;;
39188;SDS011;24915;50.858;4.376;2023-02-28T12:28:31;4.10;;;3.15;;
39188;SDS011;24915;50.858;4.376;2023-02-28T12:33:35;3.60;;;3.10;;
39188;SDS011;24915;50.858;4.376;2023-02-28T12:36:08;3.33;;;3.00;;
39188;SDS011;24915;50.858;4.376;2023-02-28T12:44:15;4.88;;;2.75;;
39188;SDS011;24915;50.858;4.376;2023-02-28T12:46:47;5.20;;;3.03;;
39188;SDS011;24915;50.858;4.376;2023-02-28T12:49:52;3.55;;;2.90;;
39188;SDS011;24915;50.858;4.376;2023-02-28T13:00:48;6.00;;;2.00;;
39188;SDS011;24915;50.858;4.376;2023-02-28T13:03:27;2.67;;;2.35;;
39188;SDS011;24915;50.858;4.376;2023-02-28T13:09:13;2.92;;;2.25;;
39188;SDS011;24915;50.858;4.376;2023-02-28T13:14:26;3.30;;;2.45;;
39188;SDS011;24915;50.858;4.376;2023-02-28T13:19:28;5.40;;;2.47;;
39188;SDS011;24915;50.858;4.376;2023-02-28T13:21:56;4.00;;;2.63;;
39188;SDS011;24915;50.858;4.376;2023-02-28T13:24:44;6.28;;;2.42;;
39188;SDS011;24915;50.858;4.376;2023-02-28T13:27:20;6.15;;;2.88;;
39188;SDS011;24915;50.858;4.376;2023-02-28T13:38:45;2.58;;;2.15;;
39188;SDS011;24915;50.858;4.376;2023-02-28T13:57:12;5.78;;;2.45;;
39188;SDS011;24915;50.858;4.376;2023-02-28T14:05:36;3.67;;;2.20;;
39188;SDS011;24915;50.858;4.376;2023-02-28T14:08:06;6.00;;;2.42;;
39188;SDS011;24915;50.858;4.376;2023-02-28T14:10:46;3.00;;;2.50;;
39188;SDS011;24915;50.858;4.376;2023-02-28T14:16:13;3.15;;;2.40;;
39188;SDS011;24915;50.858;4.376;2023-02-28T14:18:58;2.50;;;2.30;;
39188;SDS011;24915;50.858;4.376;2023-02-28T14:21:32;3.65;;;2.55;;
39188;SDS011;24915;50.858;4.376;2023-02-28T14:35:27;3.83;;;2.60;;
39188;SDS011;24915;50.858;4.376;2023-02-28T14:37:54;4.15;;;2.67;;
39188;SDS011;24915;50.858;4.376;2023-02-28T14:40:22;4.78;;;2.60;;
39188;SDS011;24915;50.858;4.376;2023-02-28T14:42:58;13.60;;;2.70;;
39188;SDS011;24915;50.858;4.376;2023-02-28T14:45:27;4.97;;;3.28;;
39188;SDS011;24915;50.858;4.376;2023-02-28T14:47:55;5.82;;;2.88;;
39188;SDS011;24915;50.858;4.376;2023-02-28T14:50:32;3.40;;;2.80;;
39188;SDS011;24915;50.858;4.376;2023-02-28T14:53:00;4.68;;;2.95;;
39188;SDS011;24915;50.858;4.376;2023-02-28T14:55:28;6.95;;;2.72;;
39188;SDS011;24915;50.858;4.376;2023-02-28T14:57:57;5.95;;;2.83;;
39188;SDS011;24915;50.858;4.376;2023-02-28T15:00:33;3.60;;;3.15;;
39188;SDS011;24915;50.858;4.376;2023-02-28T15:03:17;5.75;;;3.15;;
39188;SDS011;24915;50.858;4.376;2023-02-28T15:05:47;5.25;;;2.80;;
39188;SDS011;24915;50.858;4.376;2023-02-28T15:08:17;2.78;;;2.58;;
39188;SDS011;24915;50.858;4.376;2023-02-28T15:13:21;2.90;;;2.60;;
39188;SDS011;24915;50.858;4.376;2023-02-28T15:18:24;9.82;;;3.03;;
39188;SDS011;24915;50.858;4.376;2023-02-28T15:20:55;2.60;;;2.38;;
39188;SDS011;24915;50.858;4.376;2023-02-28T15:23:23;3.72;;;2.80;;
39188;SDS011;24915;50.858;4.376;2023-02-28T15:25:49;3.20;;;2.95;;
39188;SDS011;24915;50.858;4.376;2023-02-28T15:28:18;3.55;;;3.15;;
39188;SDS011;24915;50.858;4.376;2023-02-28T15:30:54;5.93;;;2.97;;
39188;SDS011;24915;50.858;4.376;2023-02-28T15:33:23;5.03;;;3.20;;
39188;SDS011;24915;50.858;4.376;2023-02-28T15:36:03;4.32;;;2.38;;
39188;SDS011;24915;50.858;4.376;2023-02-28T15:38:50;6.38;;;2.90;;
39188;SDS011;24915;50.858;4.376;2023-02-28T15:41:29;3.63;;;3.20;;
39188;SDS011;24915;50.858;4.376;2023-02-28T15:47:05;4.90;;;3.30;;
39188;SDS011;24915;50.858;4.376;2023-02-28T15:49:49;3.92;;;3.10;;
39188;SDS011;24915;50.858;4.376;2023-02-28T15:54:58;2.90;;;2.70;;
39188;SDS011;24915;50.858;4.376;2023-02-28T15:57:32;6.03;;;3.30;;
39188;SDS011;24915;50.858;4.376;2023-02-28T16:00:00;4.10;;;3.70;;
39188;SDS011;24915;50.858;4.376;2023-02-28T16:02:30;6.60;;;2.90;;
39188;SDS011;24915;50.858;4.376;2023-02-28T16:05:12;4.28;;;3.80;;
39188;SDS011;24915;50.858;4.376;2023-02-28T16:07:53;3.45;;;3.15;;
39188;SDS011;24915;50.858;4.376;2023-02-28T16:10:20;3.47;;;3.00;;
39188;SDS011;24915;50.858;4.376;2023-02-28T16:12:46;4.47;;;3.10;;
39188;SDS011;24915;50.858;4.376;2023-02-28T16:15:25;4.30;;;3.67;;
39188;SDS011;24915;50.858;4.376;2023-02-28T16:17:53;5.70;;;3.47;;
39188;SDS011;24915;50.858;4.376;2023-02-28T16:20:24;3.60;;;3.25;;
39188;SDS011;24915;50.858;4.376;2023-02-28T16:22:51;8.38;;;3.58;;
39188;SDS011;24915;50.858;4.376;2023-02-28T16:25:18;3.45;;;3.15;;
39188;SDS011;24915;50.858;4.376;2023-02-28T16:27:49;5.55;;;3.67;;
39188;SDS011;24915;50.858;4.376;2023-02-28T16:30:22;10.25;;;4.32;;
39188;SDS011;24915;50.858;4.376;2023-02-28T16:32:50;4.40;;;3.25;;
39188;SDS011;24915;50.858;4.376;2023-02-28T16:35:17;7.07;;;3.90;;
39188;SDS011;24915;50.858;4.376;2023-02-28T16:37:43;4.10;;;3.42;;
39188;SDS011;24915;50.858;4.376;2023-02-28T16:40:20;6.28;;;3.70;;
39188;SDS011;24915;50.858;4.376;2023-02-28T16:42:51;8.77;;;4.32;;
39188;SDS011;24915;50.858;4.376;2023-02-28T16:45:22;7.90;;;4.20;;
39188;SDS011;24915;50.858;4.376;2023-02-28T16:47:49;6.63;;;3.83;;
39188;SDS011;24915;50.858;4.376;2023-02-28T16:52:42;5.85;;;4.38;;
39188;SDS011;24915;50.858;4.376;2023-02-28T16:55:08;9.07;;;4.30;;
39188;SDS011;24915;50.858;4.376;2023-02-28T16:57:34;12.70;;;5.72;;
39188;SDS011;24915;50.858;4.376;2023-02-28T16:59:59;6.13;;;5.07;;
39188;SDS011;24915;50.858;4.376;2023-02-28T17:02:25;11.05;;;6.38;;
39188;SDS011;24915;50.858;4.376;2023-02-28T17:04:51;8.85;;;5.57;;
39188;SDS011;24915;50.858;4.376;2023-02-28T17:07:16;8.90;;;5.85;;
39188;SDS011;24915;50.858;4.376;2023-02-28T17:09:42;10.95;;;4.93;;
39188;SDS011;24915;50.858;4.376;2023-02-28T17:12:09;9.20;;;4.43;;
39188;SDS011;24915;50.858;4.376;2023-02-28T17:14:36;5.47;;;4.13;;
39188;SDS011;24915;50.858;4.376;2023-02-28T17:17:03;5.30;;;3.85;;
39188;SDS011;24915;50.858;4.376;2023-02-28T17:19:30;9.25;;;4.80;;
39188;SDS011;24915;50.858;4.376;2023-02-28T17:21:55;18.67;;;13.38;;
39188;SDS011;24915;50.858;4.376;2023-02-28T17:24:21;39.30;;;21.88;;
39188;SDS011;24915;50.858;4.376;2023-02-28T17:26:46;12.57;;;7.88;;
39188;SDS011;24915;50.858;4.376;2023-02-28T17:29:19;8.65;;;6.15;;
39188;SDS011;24915;50.858;4.376;2023-02-28T17:31:46;12.60;;;5.15;;
39188;SDS011;24915;50.858;4.376;2023-02-28T17:34:12;7.82;;;5.22;;
39188;SDS011;24915;50.858;4.376;2023-02-28T17:36:43;6.03;;;5.22;;
39188;SDS011;24915;50.858;4.376;2023-02-28T17:39:11;8.57;;;5.05;;
39188;SDS011;24915;50.858;4.376;2023-02-28T17:41:44;7.65;;;4.63;;
39188;SDS011;24915;50.858;4.376;2023-02-28T17:44:10;7.25;;;4.30;;
39188;SDS011;24915;50.858;4.376;2023-02-28T17:46:36;5.63;;;4.53;;
39188;SDS011;24915;50.858;4.376;2023-02-28T17:49:02;6.07;;;4.20;;
39188;SDS011;24915;50.858;4.376;2023-02-28T17:51:28;10.38;;;4.50;;